createdAt,value
2016-04-03T00:00:27.009Z,1006.05
2016-04-03T00:01:27.012Z,1006.02
2016-04-03T00:02:27.014Z,1006.03
2016-04-03T00:03:27.017Z,1006.01
2016-04-03T00:04:27.020Z,1006.03
2016-04-03T00:05:27.022Z,1006.04
2016-04-03T00:06:27.041Z,1006.03
2016-04-03T00:07:27.044Z,1006.06
2016-04-03T00:08:27.094Z,1005.97
2016-04-03T00:09:27.049Z,1005.86
2016-04-03T00:10:27.067Z,1005.82
2016-04-03T00:11:27.054Z,1005.8
2016-04-03T00:12:27.072Z,1005.83
2016-04-03T00:13:27.075Z,1005.82
2016-04-03T00:14:27.078Z,1005.79
2016-04-03T00:15:27.080Z,1005.74
2016-04-03T00:16:27.099Z,1005.69
2016-04-03T00:17:27.102Z,1005.58
2016-04-03T00:18:27.105Z,1005.48
2016-04-03T00:19:27.124Z,1005.41
2016-04-03T00:20:27.110Z,1005.4
2016-04-03T00:21:27.113Z,1005.41
2016-04-03T00:22:27.116Z,1005.34
2016-04-03T00:23:27.134Z,1005.33
2016-04-03T00:24:27.137Z,1005.37
2016-04-03T00:25:27.139Z,1005.42
2016-04-03T00:26:27.143Z,1005.45
2016-04-03T00:27:27.145Z,1005.47
2016-04-03T00:28:27.148Z,1005.51
2016-04-03T00:29:27.166Z,1005.56
2016-04-03T00:30:27.168Z,1005.55
2016-04-03T00:31:27.171Z,1005.53
2016-04-03T00:32:27.173Z,1005.51
2016-04-03T00:33:27.176Z,1005.5
2016-04-03T00:34:27.289Z,1005.54
2016-04-03T00:35:27.197Z,1005.56
2016-04-03T00:36:27.200Z,1005.58
2016-04-03T00:37:27.202Z,1005.65
2016-04-03T00:38:27.205Z,1005.64
2016-04-03T00:39:27.223Z,1005.57
2016-04-03T00:40:27.226Z,1005.55
2016-04-03T00:41:27.229Z,1005.52
2016-04-03T00:42:27.232Z,1005.53
2016-04-03T00:43:27.234Z,1005.5
2016-04-03T00:44:27.237Z,1005.53
2016-04-03T00:45:27.255Z,1005.57
2016-04-03T00:46:27.258Z,1005.55
2016-04-03T00:47:27.261Z,1005.52
2016-04-03T00:48:27.263Z,1005.47
2016-04-03T00:49:27.297Z,1005.52
2016-04-03T00:50:27.268Z,1005.48
2016-04-03T00:51:27.287Z,1005.44
2016-04-03T00:52:27.290Z,1005.45
2016-04-03T00:53:27.293Z,1005.45
2016-04-03T00:54:27.296Z,1005.41
2016-04-03T00:55:27.298Z,1005.41
2016-04-03T00:56:27.301Z,1005.38
2016-04-03T00:57:27.318Z,1005.38
2016-04-03T00:58:27.321Z,1005.36
2016-04-03T00:59:27.324Z,1005.33
2016-04-03T01:00:27.326Z,1005.39
2016-04-03T01:01:27.330Z,1005.34
2016-04-03T01:02:27.332Z,1005.36
2016-04-03T01:03:27.351Z,1005.36
2016-04-03T01:04:27.495Z,1005.37
2016-04-03T01:05:27.357Z,1005.35
2016-04-03T01:06:27.359Z,1005.39
2016-04-03T01:07:27.362Z,1005.36
2016-04-03T01:08:27.371Z,1005.4
2016-04-03T01:09:27.374Z,1005.42
2016-04-03T01:10:27.391Z,1005.39
2016-04-03T01:11:27.394Z,1005.41
2016-04-03T01:12:27.397Z,1005.41
2016-04-03T01:13:27.399Z,1005.39
2016-04-03T01:14:27.402Z,1005.39
2016-04-03T01:15:27.420Z,1005.39
2016-04-03T01:16:27.424Z,1005.37
2016-04-03T01:17:27.414Z,1005.3
2016-04-03T01:18:27.433Z,1005.33
2016-04-03T01:19:27.436Z,1005.33
2016-04-03T01:20:27.438Z,1005.3
2016-04-03T01:21:27.441Z,1005.27
2016-04-03T01:22:27.443Z,1005.29
2016-04-03T01:23:27.462Z,1005.31
2016-04-03T01:24:27.465Z,1005.3
2016-04-03T01:25:27.483Z,1005.35
2016-04-03T01:26:27.471Z,1005.35
2016-04-03T01:27:27.474Z,1005.34
2016-04-03T01:28:27.476Z,1005.3
2016-04-03T01:29:27.494Z,1005.28
2016-04-03T01:30:27.496Z,1005.26
2016-04-03T01:31:27.499Z,1005.21
2016-04-03T01:32:27.502Z,1005.27
2016-04-03T01:33:27.504Z,1005.18
2016-04-03T01:34:27.601Z,1005.19
2016-04-03T01:35:27.525Z,1005.22
2016-04-03T01:36:27.528Z,1005.26
2016-04-03T01:37:27.531Z,1005.3
2016-04-03T01:38:27.548Z,1005.32
2016-04-03T01:39:27.537Z,1005.29
2016-04-03T01:40:27.554Z,1005.32
2016-04-03T01:41:27.557Z,1005.31
2016-04-03T01:42:27.559Z,1005.32
2016-04-03T01:43:27.562Z,1005.33
2016-04-03T01:44:27.565Z,1005.38
2016-04-03T01:45:27.567Z,1005.36
2016-04-03T01:46:27.586Z,1005.36
2016-04-03T01:47:27.589Z,1005.37
2016-04-03T01:48:27.592Z,1005.38
2016-04-03T01:49:27.626Z,1005.36
2016-04-03T01:50:27.597Z,1005.36
2016-04-03T01:51:27.616Z,1005.34
2016-04-03T01:52:27.618Z,1005.4
2016-04-03T01:53:27.621Z,1005.43
2016-04-03T01:54:27.624Z,1005.46
2016-04-03T01:55:27.627Z,1005.4
2016-04-03T01:56:27.629Z,1005.46
2016-04-03T01:57:27.647Z,1005.42
2016-04-03T01:58:27.649Z,1005.43
2016-04-03T01:59:27.652Z,1005.41
2016-04-03T02:00:27.655Z,1005.4
2016-04-03T02:01:27.658Z,1005.42
2016-04-03T02:02:27.677Z,1005.41
2016-04-03T02:03:27.679Z,1005.41
2016-04-03T02:04:27.698Z,1005.4
2016-04-03T02:05:27.684Z,1005.4
2016-04-03T02:06:27.687Z,1005.35
2016-04-03T02:07:27.695Z,1005.33
2016-04-03T02:08:27.697Z,1005.31
2016-04-03T02:09:27.700Z,1005.28
2016-04-03T02:10:27.718Z,1005.25
2016-04-03T02:11:27.721Z,1005.22
2016-04-03T02:12:27.724Z,1005.15
2016-04-03T02:13:27.726Z,1005.17
2016-04-03T02:14:27.729Z,1005.14
2016-04-03T02:15:27.747Z,1005.1
2016-04-03T02:16:27.750Z,1005.09
2016-04-03T02:17:27.753Z,1005.04
2016-04-03T02:18:27.755Z,1005.07
2016-04-03T02:19:27.758Z,1005.01
2016-04-03T02:20:27.791Z,1005.01
2016-04-03T02:21:27.779Z,1005.06
2016-04-03T02:22:27.782Z,1005.07
2016-04-03T02:23:27.785Z,1005.07
2016-04-03T02:24:27.788Z,1005.08
2016-04-03T02:25:27.805Z,1005.05
2016-04-03T02:26:27.808Z,1005.02
2016-04-03T02:27:27.810Z,1005.03
2016-04-03T02:28:27.813Z,1005.06
2016-04-03T02:29:27.816Z,1005.05
2016-04-03T02:30:27.835Z,1005.07
2016-04-03T02:31:27.837Z,1005.08
2016-04-03T02:32:27.840Z,1005.06
2016-04-03T02:33:27.842Z,1005.08
2016-04-03T02:34:27.861Z,1005.08
2016-04-03T02:35:27.864Z,1005.09
2016-04-03T02:36:27.851Z,1005.08
2016-04-03T02:37:27.870Z,1005.08
2016-04-03T02:38:27.872Z,1005.09
2016-04-03T02:39:27.875Z,1005.16
2016-04-03T02:40:27.877Z,1005.16
2016-04-03T02:41:27.895Z,1005.19
2016-04-03T02:42:27.898Z,1005.16
2016-04-03T02:43:27.900Z,1005.19
2016-04-03T02:44:27.903Z,1005.18
2016-04-03T02:45:27.906Z,1005.16
2016-04-03T02:46:27.909Z,1005.2
2016-04-03T02:47:27.928Z,1005.14
2016-04-03T02:48:27.930Z,1005.15
2016-04-03T02:49:27.964Z,1005.15
2016-04-03T02:50:27.935Z,1005.21
2016-04-03T02:51:27.938Z,1005.24
2016-04-03T02:52:27.955Z,1005.26
2016-04-03T02:53:27.958Z,1005.25
2016-04-03T02:54:27.961Z,1005.27
2016-04-03T02:55:27.964Z,1005.31
2016-04-03T02:56:27.967Z,1005.28
2016-04-03T02:57:27.969Z,1005.25
2016-04-03T02:58:27.988Z,1005.31
2016-04-03T02:59:27.991Z,1005.33
2016-04-03T03:00:27.994Z,1005.31
2016-04-03T03:01:27.996Z,1005.31
2016-04-03T03:02:27.999Z,1005.33
2016-04-03T03:03:28.001Z,1005.28
2016-04-03T03:04:28.082Z,1005.27
2016-04-03T03:05:28.023Z,1005.29
2016-04-03T03:06:28.025Z,1005.29
2016-04-03T03:07:28.028Z,1005.27
2016-04-03T03:08:28.030Z,1005.24
2016-04-03T03:09:28.048Z,1005.21
2016-04-03T03:10:28.051Z,1005.24
2016-04-03T03:11:28.070Z,1005.2
2016-04-03T03:12:28.057Z,1005.19
2016-04-03T03:13:28.059Z,1005.19
2016-04-03T03:14:28.062Z,1005.17
2016-04-03T03:15:28.080Z,1005.18
2016-04-03T03:16:28.083Z,1005.18
2016-04-03T03:17:28.086Z,1005.17
2016-04-03T03:18:28.088Z,1005.18
2016-04-03T03:19:28.108Z,1005.21
2016-04-03T03:20:28.094Z,1005.25
2016-04-03T03:21:28.113Z,1005.23
2016-04-03T03:22:28.116Z,1005.21
2016-04-03T03:23:28.118Z,1005.17
2016-04-03T03:24:28.121Z,1005.14
2016-04-03T03:25:28.138Z,1005.11
2016-04-03T03:26:28.141Z,1005.14
2016-04-03T03:27:28.144Z,1005.1
2016-04-03T03:28:28.146Z,1005.09
2016-04-03T03:29:28.196Z,1005.09
2016-04-03T03:30:28.152Z,1005.13
2016-04-03T03:31:28.170Z,1005.16
2016-04-03T03:32:28.174Z,1005.13
2016-04-03T03:33:28.176Z,1005.11
2016-04-03T03:34:28.179Z,1005.07
2016-04-03T03:35:28.182Z,1005.04
2016-04-03T03:36:28.184Z,1004.99
2016-04-03T03:37:28.202Z,1005.04
2016-04-03T03:38:28.204Z,1005
2016-04-03T03:39:28.207Z,1005
2016-04-03T03:40:28.210Z,1004.94
2016-04-03T03:41:28.228Z,1004.9
2016-04-03T03:42:28.215Z,1004.87
2016-04-03T03:43:28.233Z,1004.82
2016-04-03T03:44:28.236Z,1004.77
2016-04-03T03:45:28.239Z,1004.68
2016-04-03T03:46:28.242Z,1004.64
2016-04-03T03:47:28.245Z,1004.58
2016-04-03T03:48:28.247Z,1004.52
2016-04-03T03:49:28.266Z,1004.41
2016-04-03T03:50:28.268Z,1004.36
2016-04-03T03:51:28.271Z,1004.3
2016-04-03T03:52:28.274Z,1004.27
2016-04-03T03:53:28.291Z,1004.22
2016-04-03T03:54:28.294Z,1004.19
2016-04-03T03:55:28.297Z,1004.19
2016-04-03T03:56:28.300Z,1004.2
2016-04-03T03:57:28.303Z,1004.15
2016-04-03T03:58:28.306Z,1004.13
2016-04-03T03:59:28.324Z,1004.14
2016-04-03T04:00:28.327Z,1004.15
2016-04-03T04:01:28.329Z,1004.2
2016-04-03T04:02:28.332Z,1004.2
2016-04-03T04:03:28.335Z,1004.24
2016-04-03T04:04:28.368Z,1004.28
2016-04-03T04:05:28.356Z,1004.25
2016-04-03T04:06:28.358Z,1004.26
2016-04-03T04:07:28.362Z,1004.24
2016-04-03T04:08:28.364Z,1004.24
2016-04-03T04:09:28.367Z,1004.27
2016-04-03T04:10:28.370Z,1004.25
2016-04-03T04:11:28.387Z,1004.29
2016-04-03T04:12:28.390Z,1004.27
2016-04-03T04:13:28.392Z,1004.26
2016-04-03T04:14:28.395Z,1004.31
2016-04-03T04:15:28.398Z,1004.33
2016-04-03T04:16:28.400Z,1004.39
2016-04-03T04:17:28.419Z,1004.37
2016-04-03T04:18:28.421Z,1004.43
2016-04-03T04:19:28.486Z,1004.43
2016-04-03T04:20:28.427Z,1004.43
2016-04-03T04:21:28.430Z,1004.41
2016-04-03T04:22:28.448Z,1004.43
2016-04-03T04:23:28.451Z,1004.44
2016-04-03T04:24:28.453Z,1004.47
2016-04-03T04:25:28.456Z,1004.48
2016-04-03T04:26:28.458Z,1004.48
2016-04-03T04:27:28.477Z,1004.44
2016-04-03T04:28:28.480Z,1004.43
2016-04-03T04:29:28.482Z,1004.42
2016-04-03T04:30:28.486Z,1004.44
2016-04-03T04:31:28.488Z,1004.52
2016-04-03T04:32:28.491Z,1004.46
2016-04-03T04:33:28.510Z,1004.5
2016-04-03T04:34:28.574Z,1004.49
2016-04-03T04:35:28.515Z,1004.53
2016-04-03T04:36:28.517Z,1004.49
2016-04-03T04:37:28.520Z,1004.5
2016-04-03T04:38:28.523Z,1004.46
2016-04-03T04:39:28.540Z,1004.51
2016-04-03T04:40:28.543Z,1004.47
2016-04-03T04:41:28.545Z,1004.48
2016-04-03T04:42:28.548Z,1004.51
2016-04-03T04:43:28.551Z,1004.53
2016-04-03T04:44:28.570Z,1004.57
2016-04-03T04:45:28.573Z,1004.58
2016-04-03T04:46:28.575Z,1004.63
2016-04-03T04:47:28.578Z,1004.66
2016-04-03T04:48:28.580Z,1004.64
2016-04-03T04:49:28.724Z,1004.62
2016-04-03T04:50:28.602Z,1004.64
2016-04-03T04:51:28.605Z,1004.64
2016-04-03T04:52:28.607Z,1004.62
2016-04-03T04:53:28.610Z,1004.61
2016-04-03T04:54:28.612Z,1004.63
2016-04-03T04:55:28.615Z,1004.64
2016-04-03T04:56:28.633Z,1004.65
2016-04-03T04:57:28.635Z,1004.66
2016-04-03T04:58:28.639Z,1004.69
2016-04-03T04:59:28.641Z,1004.63
2016-04-03T05:00:28.644Z,1004.6
2016-04-03T05:01:28.647Z,1004.62
2016-04-03T05:02:28.665Z,1004.59
2016-04-03T05:03:28.668Z,1004.57
2016-04-03T05:04:28.685Z,1004.61
2016-04-03T05:05:28.673Z,1004.58
2016-04-03T05:06:28.676Z,1004.65
2016-04-03T05:07:28.679Z,1004.72
2016-04-03T05:08:28.697Z,1004.75
2016-04-03T05:09:28.699Z,1004.67
2016-04-03T05:10:28.702Z,1004.68
2016-04-03T05:11:28.704Z,1004.57
2016-04-03T05:12:28.707Z,1004.55
2016-04-03T05:13:28.726Z,1004.52
2016-04-03T05:14:28.728Z,1004.55
2016-04-03T05:15:28.720Z,1004.57
2016-04-03T05:16:28.712Z,1004.56
2016-04-03T05:17:28.703Z,1004.6
2016-04-03T05:18:28.694Z,1004.64
2016-04-03T05:19:28.718Z,1004.61
2016-04-03T05:20:28.701Z,1004.64
2016-04-03T05:21:28.700Z,1004.59
2016-04-03T05:22:28.699Z,1004.63
2016-04-03T05:23:28.697Z,1004.62
2016-04-03T05:24:28.712Z,1004.55
2016-04-03T05:25:28.698Z,1004.62
2016-04-03T05:26:28.714Z,1004.63
2016-04-03T05:27:28.715Z,1004.64
2016-04-03T05:28:28.717Z,1004.64
2016-04-03T05:29:28.718Z,1004.66
2016-04-03T05:30:28.720Z,1004.64
2016-04-03T05:31:28.738Z,1004.68
2016-04-03T05:32:28.740Z,1004.62
2016-04-03T05:33:28.743Z,1004.58
2016-04-03T05:34:28.776Z,1004.6
2016-04-03T05:35:28.747Z,1004.59
2016-04-03T05:36:28.750Z,1004.6
2016-04-03T05:37:28.768Z,1004.6
2016-04-03T05:38:28.770Z,1004.57
2016-04-03T05:39:28.773Z,1004.6
2016-04-03T05:40:28.775Z,1004.57
2016-04-03T05:41:28.793Z,1004.6
2016-04-03T05:42:28.781Z,1004.59
2016-04-03T05:43:28.798Z,1004.53
2016-04-03T05:44:28.801Z,1004.56
2016-04-03T05:45:28.803Z,1004.55
2016-04-03T05:46:28.806Z,1004.6
2016-04-03T05:47:28.809Z,1004.61
2016-04-03T05:48:28.811Z,1004.57
2016-04-03T05:49:28.908Z,1004.61
2016-04-03T05:50:28.833Z,1004.59
2016-04-03T05:51:28.836Z,1004.57
2016-04-03T05:52:28.838Z,1004.58
2016-04-03T05:53:28.841Z,1004.6
2016-04-03T05:54:28.859Z,1004.59
2016-04-03T05:55:28.862Z,1004.59
2016-04-03T05:56:28.864Z,1004.62
2016-04-03T05:57:28.867Z,1004.61
2016-04-03T05:58:28.870Z,1004.61
2016-04-03T05:59:28.889Z,1004.63
2016-04-03T06:00:28.891Z,1004.6
2016-04-03T06:01:28.894Z,1004.57
2016-04-03T06:02:28.896Z,1004.6
2016-04-03T06:03:28.899Z,1004.58
2016-04-03T06:04:28.902Z,1004.65
2016-04-03T06:05:28.905Z,1004.67
2016-04-03T06:06:28.923Z,1004.61
2016-04-03T06:07:28.926Z,1004.62
2016-04-03T06:08:28.929Z,1004.61
2016-04-03T06:09:28.931Z,1004.61
2016-04-03T06:10:28.934Z,1004.65
2016-04-03T06:11:28.937Z,1004.65
2016-04-03T06:12:28.954Z,1004.69
2016-04-03T06:13:28.957Z,1004.7
2016-04-03T06:14:28.960Z,1004.7
2016-04-03T06:15:28.962Z,1004.68
2016-04-03T06:16:28.965Z,1004.67
2016-04-03T06:17:28.984Z,1004.67
2016-04-03T06:18:28.986Z,1004.73
2016-04-03T06:19:29.005Z,1004.72
2016-04-03T06:20:29.008Z,1004.73
2016-04-03T06:21:28.995Z,1004.73
2016-04-03T06:22:29.013Z,1004.74
2016-04-03T06:23:29.016Z,1004.73
2016-04-03T06:24:29.019Z,1004.69
2016-04-03T06:25:29.022Z,1004.68
2016-04-03T06:26:29.024Z,1004.73
2016-04-03T06:27:29.027Z,1004.68
2016-04-03T06:28:29.030Z,1004.65
2016-04-03T06:29:29.047Z,1004.75
2016-04-03T06:30:29.050Z,1004.71
2016-04-03T06:31:29.069Z,1004.75
2016-04-03T06:32:29.055Z,1004.78
2016-04-03T06:33:29.058Z,1004.77
2016-04-03T06:34:29.171Z,1004.74
2016-04-03T06:35:29.079Z,1004.73
2016-04-03T06:36:29.082Z,1004.73
2016-04-03T06:37:29.100Z,1004.73
2016-04-03T06:38:29.102Z,1004.72
2016-04-03T06:39:29.105Z,1004.72
2016-04-03T06:40:29.108Z,1004.78
2016-04-03T06:41:29.110Z,1004.77
2016-04-03T06:42:29.113Z,1004.77
2016-04-03T06:43:29.116Z,1004.72
2016-04-03T06:44:29.118Z,1004.75
2016-04-03T06:45:29.121Z,1004.67
2016-04-03T06:46:29.140Z,1004.69
2016-04-03T06:47:29.143Z,1004.69
2016-04-03T06:48:29.146Z,1004.7
2016-04-03T06:49:29.179Z,1004.67
2016-04-03T06:50:29.151Z,1004.72
2016-04-03T06:51:29.169Z,1004.68
2016-04-03T06:52:29.172Z,1004.73
2016-04-03T06:53:29.175Z,1004.74
2016-04-03T06:54:29.177Z,1004.78
2016-04-03T06:55:29.180Z,1004.76
2016-04-03T06:56:29.183Z,1004.82
2016-04-03T06:57:29.201Z,1004.86
2016-04-03T06:58:29.204Z,1004.89
2016-04-03T06:59:29.206Z,1004.92
2016-04-03T07:00:29.209Z,1005.02
2016-04-03T07:01:29.211Z,1005.02
2016-04-03T07:02:29.230Z,1005.02
2016-04-03T07:03:29.233Z,1005.08
2016-04-03T07:04:29.251Z,1005.07
2016-04-03T07:05:29.238Z,1005.13
2016-04-03T07:06:29.241Z,1005.03
2016-04-03T07:07:29.243Z,1005.01
2016-04-03T07:08:29.262Z,1005.06
2016-04-03T07:09:29.265Z,1005.06
2016-04-03T07:10:29.267Z,1005.09
2016-04-03T07:11:29.271Z,1005.17
2016-04-03T07:12:29.273Z,1005.16
2016-04-03T07:13:29.276Z,1005.21
2016-04-03T07:14:29.294Z,1005.14
2016-04-03T07:15:29.297Z,1005.1
2016-04-03T07:16:29.299Z,1005.15
2016-04-03T07:17:29.302Z,1005.12
2016-04-03T07:18:29.305Z,1005.09
2016-04-03T07:19:29.323Z,1005.1
2016-04-03T07:20:29.326Z,1005.11
2016-04-03T07:21:29.329Z,1005.18
2016-04-03T07:22:29.331Z,1005.18
2016-04-03T07:23:29.334Z,1005.17
2016-04-03T07:24:29.336Z,1005.17
2016-04-03T07:25:29.354Z,1005.21
2016-04-03T07:26:29.357Z,1005.2
2016-04-03T07:27:29.359Z,1005.2
2016-04-03T07:28:29.362Z,1005.23
2016-04-03T07:29:29.365Z,1005.24
2016-04-03T07:30:29.383Z,1005.23
2016-04-03T07:31:29.386Z,1005.19
2016-04-03T07:32:29.389Z,1005.22
2016-04-03T07:33:29.392Z,1005.22
2016-04-03T07:34:29.442Z,1005.27
2016-04-03T07:35:29.414Z,1005.2
2016-04-03T07:36:29.416Z,1005.18
2016-04-03T07:37:29.419Z,1005.19
2016-04-03T07:38:29.422Z,1005.16
2016-04-03T07:39:29.424Z,1005.18
2016-04-03T07:40:29.442Z,1005.11
2016-04-03T07:41:29.444Z,1005.1
2016-04-03T07:42:29.447Z,1005.15
2016-04-03T07:43:29.450Z,1005.09
2016-04-03T07:44:29.452Z,1005.07
2016-04-03T07:45:29.471Z,1005.02
2016-04-03T07:46:29.474Z,1005.04
2016-04-03T07:47:29.476Z,1005.05
2016-04-03T07:48:29.479Z,1005.03
2016-04-03T07:49:29.481Z,1005
2016-04-03T07:50:29.500Z,1005.04
2016-04-03T07:51:29.503Z,1005.02
2016-04-03T07:52:29.506Z,1005.03
2016-04-03T07:53:29.509Z,1005.03
2016-04-03T07:54:29.511Z,1005.05
2016-04-03T07:55:29.514Z,1005.02
2016-04-03T07:56:29.532Z,1004.95
2016-04-03T07:57:29.534Z,1004.99
2016-04-03T07:58:29.537Z,1004.97
2016-04-03T07:59:29.540Z,1004.98
2016-04-03T08:00:29.542Z,1004.93
2016-04-03T08:01:29.561Z,1004.92
2016-04-03T08:02:29.563Z,1004.9
2016-04-03T08:03:29.567Z,1004.9
2016-04-03T08:04:29.647Z,1004.83
2016-04-03T08:05:29.572Z,1004.78
2016-04-03T08:06:29.590Z,1004.81
2016-04-03T08:07:29.592Z,1004.8
2016-04-03T08:08:29.595Z,1004.86
2016-04-03T08:09:29.597Z,1004.87
2016-04-03T08:10:29.600Z,1004.87
2016-04-03T08:11:29.619Z,1004.89
2016-04-03T08:12:29.622Z,1004.9
2016-04-03T08:13:29.624Z,1004.88
2016-04-03T08:14:29.627Z,1004.92
2016-04-03T08:15:29.630Z,1004.96
2016-04-03T08:16:29.648Z,1004.98
2016-04-03T08:17:29.651Z,1004.97
2016-04-03T08:18:29.653Z,1005.02
2016-04-03T08:19:29.718Z,1005.05
2016-04-03T08:20:29.659Z,1005.03
2016-04-03T08:21:29.676Z,1005.04
2016-04-03T08:22:29.680Z,1005.04
2016-04-03T08:23:29.682Z,1005.02
2016-04-03T08:24:29.685Z,1005.02
2016-04-03T08:25:29.688Z,1005.07
2016-04-03T08:26:29.691Z,1005.08
2016-04-03T08:27:29.709Z,1005.1
2016-04-03T08:28:29.712Z,1005.06
2016-04-03T08:29:29.715Z,1005.07
2016-04-03T08:30:29.717Z,1005.04
2016-04-03T08:31:29.720Z,1004.98
2016-04-03T08:32:29.739Z,1005.01
2016-04-03T08:33:29.741Z,1004.96
2016-04-03T08:34:29.759Z,1004.98
2016-04-03T08:35:29.747Z,1004.92
2016-04-03T08:36:29.749Z,1004.94
2016-04-03T08:37:29.767Z,1004.99
2016-04-03T08:38:29.769Z,1005.06
2016-04-03T08:39:29.772Z,1005.1
2016-04-03T08:40:29.775Z,1005.07
2016-04-03T08:41:29.777Z,1005.13
2016-04-03T08:42:29.796Z,1005.14
2016-04-03T08:43:29.799Z,1005.15
2016-04-03T08:44:29.817Z,1005.15
2016-04-03T08:45:29.804Z,1005.11
2016-04-03T08:46:29.807Z,1005.07
2016-04-03T08:47:29.809Z,1005.04
2016-04-03T08:48:29.827Z,1005.05
2016-04-03T08:49:29.862Z,1005.05
2016-04-03T08:50:29.832Z,1005.05
2016-04-03T08:51:29.835Z,1005.07
2016-04-03T08:52:29.838Z,1005.12
2016-04-03T08:53:29.856Z,1005.14
2016-04-03T08:54:29.859Z,1005.17
2016-04-03T08:55:29.862Z,1005.15
2016-04-03T08:56:29.864Z,1005.13
2016-04-03T08:57:29.868Z,1005.26
2016-04-03T08:58:29.886Z,1005.15
2016-04-03T08:59:29.889Z,1005.16
2016-04-03T09:00:29.891Z,1005.14
2016-04-03T09:01:29.894Z,1005.25
2016-04-03T09:02:29.912Z,1005.28
2016-04-03T09:03:29.914Z,1005.25
2016-04-03T09:04:29.980Z,1005.26
2016-04-03T09:05:29.920Z,1005.32
2016-04-03T09:06:29.939Z,1005.27
2016-04-03T09:07:29.925Z,1005.25
2016-04-03T09:08:29.935Z,1005.25
2016-04-03T09:09:29.938Z,1005.26
2016-04-03T09:10:29.941Z,1005.25
2016-04-03T09:11:29.959Z,1005.19
2016-04-03T09:12:29.962Z,1005.2
2016-04-03T09:13:29.964Z,1005.18
2016-04-03T09:14:29.967Z,1005.18
2016-04-03T09:15:29.970Z,1005.12
2016-04-03T09:16:29.988Z,1005.2
2016-04-03T09:17:29.991Z,1005.09
2016-04-03T09:18:29.993Z,1005.03
2016-04-03T09:19:29.996Z,1004.93
2016-04-03T09:20:29.999Z,1005.02
2016-04-03T09:21:30.001Z,1005.01
2016-04-03T09:22:30.004Z,1004.99
2016-04-03T09:23:30.022Z,1004.96
2016-04-03T09:24:30.025Z,1005.01
2016-04-03T09:25:30.027Z,1005
2016-04-03T09:26:30.030Z,1004.99
2016-04-03T09:27:30.033Z,1004.99
2016-04-03T09:28:30.052Z,1004.98
2016-04-03T09:29:30.055Z,1004.95
2016-04-03T09:30:30.057Z,1004.95
2016-04-03T09:31:30.060Z,1004.92
2016-04-03T09:32:30.062Z,1004.91
2016-04-03T09:33:30.081Z,1004.92
2016-04-03T09:34:30.099Z,1004.92
2016-04-03T09:35:30.086Z,1004.9
2016-04-03T09:36:30.088Z,1004.87
2016-04-03T09:37:30.091Z,1004.79
2016-04-03T09:38:30.112Z,1004.82
2016-04-03T09:39:30.114Z,1004.78
2016-04-03T09:40:30.117Z,1004.79
2016-04-03T09:41:30.120Z,1004.79
2016-04-03T09:42:30.122Z,1004.84
2016-04-03T09:43:30.140Z,1004.84
2016-04-03T09:44:30.143Z,1004.85
2016-04-03T09:45:30.146Z,1004.84
2016-04-03T09:46:30.148Z,1004.84
2016-04-03T09:47:30.151Z,1004.83
2016-04-03T09:48:30.170Z,1004.79
2016-04-03T09:49:30.235Z,1004.82
2016-04-03T09:50:30.175Z,1004.77
2016-04-03T09:51:30.178Z,1004.78
2016-04-03T09:52:30.197Z,1004.72
2016-04-03T09:53:30.200Z,1004.71
2016-04-03T09:54:30.202Z,1004.66
2016-04-03T09:55:30.204Z,1004.6
2016-04-03T09:56:30.222Z,1004.63
2016-04-03T09:57:30.225Z,1004.64
2016-04-03T09:58:30.227Z,1004.6
2016-04-03T09:59:30.230Z,1004.71
2016-04-03T10:00:30.249Z,1004.7
2016-04-03T10:01:30.252Z,1004.76
2016-04-03T10:02:30.280Z,1004.78
2016-04-03T10:03:30.254Z,1004.77
2016-04-03T10:04:30.274Z,1004.85
2016-04-03T10:05:30.269Z,1004.91
2016-04-03T10:06:30.390Z,1004.82
2016-04-03T10:07:30.284Z,1004.85
2016-04-03T10:08:30.286Z,1004.83
2016-04-03T10:09:30.289Z,1004.83
2016-04-03T10:10:30.306Z,1004.83
2016-04-03T10:11:30.310Z,1004.8
2016-04-03T10:12:30.312Z,1004.75
2016-04-03T10:13:30.315Z,1004.8
2016-04-03T10:14:30.318Z,1004.78
2016-04-03T10:15:30.336Z,1004.76
2016-04-03T10:16:30.339Z,1004.73
2016-04-03T10:17:30.341Z,1004.72
2016-04-03T10:18:30.344Z,1004.73
2016-04-03T10:19:30.362Z,1004.79
2016-04-03T10:20:30.365Z,1004.68
2016-04-03T10:21:30.367Z,1004.63
2016-04-03T10:22:30.370Z,1004.62
2016-04-03T10:23:30.389Z,1004.58
2016-04-03T10:24:30.392Z,1004.58
2016-04-03T10:25:30.394Z,1004.62
2016-04-03T10:26:30.397Z,1004.59
2016-04-03T10:27:30.399Z,1004.57
2016-04-03T10:28:30.418Z,1004.61
2016-04-03T10:29:30.421Z,1004.59
2016-04-03T10:30:30.424Z,1004.56
2016-04-03T10:31:30.442Z,1004.6
2016-04-03T10:32:30.444Z,1004.59
2016-04-03T10:33:30.447Z,1004.58
2016-04-03T10:34:30.465Z,1004.57
2016-04-03T10:35:30.452Z,1004.54
2016-04-03T10:36:30.470Z,1004.58
2016-04-03T10:37:30.473Z,1004.6
2016-04-03T10:38:30.476Z,1004.66
2016-04-03T10:39:30.495Z,1004.69
2016-04-03T10:40:30.498Z,1004.63
2016-04-03T10:41:30.500Z,1004.68
2016-04-03T10:42:30.503Z,1004.69
2016-04-03T10:43:30.521Z,1004.66
2016-04-03T10:44:30.524Z,1004.65
2016-04-03T10:45:30.526Z,1004.63
2016-04-03T10:46:30.529Z,1004.64
2016-04-03T10:47:30.548Z,1004.61
2016-04-03T10:48:30.550Z,1004.7
2016-04-03T10:49:30.553Z,1004.67
2016-04-03T10:50:30.555Z,1004.71
2016-04-03T10:51:30.558Z,1004.64
2016-04-03T10:52:30.575Z,1004.7
2016-04-03T10:53:30.578Z,1004.64
2016-04-03T10:54:30.581Z,1004.69
2016-04-03T10:55:30.584Z,1004.71
2016-04-03T10:56:30.603Z,1004.64
2016-04-03T10:57:30.605Z,1004.65
2016-04-03T10:58:30.608Z,1004.63
2016-04-03T10:59:30.610Z,1004.65
2016-04-03T11:00:30.613Z,1004.71
2016-04-03T11:01:30.631Z,1004.63
2016-04-03T11:02:30.634Z,1004.6
2016-04-03T11:03:30.637Z,1004.56
2016-04-03T11:04:30.655Z,1004.53
2016-04-03T11:05:30.658Z,1004.52
2016-04-03T11:06:30.661Z,1004.47
2016-04-03T11:07:30.671Z,1004.47
2016-04-03T11:08:30.673Z,1004.49
2016-04-03T11:09:30.676Z,1004.48
2016-04-03T11:10:30.679Z,1004.52
2016-04-03T11:11:30.682Z,1004.46
2016-04-03T11:12:30.701Z,1004.58
2016-04-03T11:13:30.703Z,1004.47
2016-04-03T11:14:30.706Z,1004.57
2016-04-03T11:15:30.723Z,1004.51
2016-04-03T11:16:30.726Z,1004.49
2016-04-03T11:17:30.728Z,1004.57
2016-04-03T11:18:30.731Z,1004.57
2016-04-03T11:19:30.781Z,1004.65
2016-04-03T11:20:30.753Z,1004.57
2016-04-03T11:21:30.755Z,1004.54
2016-04-03T11:22:30.758Z,1004.51
2016-04-03T11:23:30.761Z,1004.51
2016-04-03T11:24:30.763Z,1004.6
2016-04-03T11:25:30.782Z,1004.55
2016-04-03T11:26:30.785Z,1004.54
2016-04-03T11:27:30.788Z,1004.48
2016-04-03T11:28:30.806Z,1004.52
2016-04-03T11:29:30.808Z,1004.52
2016-04-03T11:30:30.811Z,1004.46
2016-04-03T11:31:30.814Z,1004.51
2016-04-03T11:32:30.816Z,1004.58
2016-04-03T11:33:30.819Z,1004.52
2016-04-03T11:34:30.837Z,1004.52
2016-04-03T11:35:30.840Z,1004.47
2016-04-03T11:36:30.843Z,1004.47
2016-04-03T11:37:30.862Z,1004.39
2016-04-03T11:38:30.865Z,1004.33
2016-04-03T11:39:30.867Z,1004.28
2016-04-03T11:40:30.870Z,1004.33
2016-04-03T11:41:30.887Z,1004.32
2016-04-03T11:42:30.890Z,1004.28
2016-04-03T11:43:30.892Z,1004.29
2016-04-03T11:44:30.895Z,1004.3
2016-04-03T11:45:30.929Z,1004.31
2016-04-03T11:46:30.917Z,1004.34
2016-04-03T11:47:30.920Z,1004.29
2016-04-03T11:48:30.922Z,1004.27
2016-04-03T11:49:30.925Z,1004.19
2016-04-03T11:50:30.943Z,1004.27
2016-04-03T11:51:30.946Z,1004.24
2016-04-03T11:52:30.948Z,1004.26
2016-04-03T11:53:30.951Z,1004.29
2016-04-03T11:54:30.970Z,1004.31
2016-04-03T11:55:30.972Z,1004.28
2016-04-03T11:56:30.975Z,1004.27
2016-04-03T11:57:30.977Z,1004.21
2016-04-03T11:58:30.980Z,1004.28
2016-04-03T11:59:30.998Z,1004.3
2016-04-03T12:00:31.001Z,1004.21
2016-04-03T12:01:31.005Z,1004.25
2016-04-03T12:02:31.007Z,1004.19
2016-04-03T12:03:31.024Z,1004.2
2016-04-03T12:04:31.028Z,1004.23
2016-04-03T12:05:31.031Z,1004.18
2016-04-03T12:06:31.033Z,1004.15
2016-04-03T12:07:31.051Z,1004.18
2016-04-03T12:08:31.054Z,1004.14